Time;durP1;ratioP1;P1;durP2;ratioP2;P2;SDS_P1;SDS_P2;PMS_P1;PMS_P2;Temp;Humidity;BMP_temperature;BMP_pressure;BME280_temperature;BME280_humidity;BME280_pressure;Samples;Min_cycle;Max_cycle;Signal;HPM_P1;HPM_P2
2021/04/03 00:00:57;;;;;;;18.65;13.90;;;;;;;8.37;74.28;99716.23;1788706;80;21504;-70
2021/04/03 00:03:27;;;;;;;25.72;12.93;;;;;;;8.40;74.27;99712.10;1788651;79;20942;-69
2021/04/03 00:05:56;;;;;;;20.40;13.78;;;;;;;;;;1788651;80;21247;-70
2021/04/03 00:08:26;;;;;;;19.30;12.65;;;;;;;8.44;74.36;99703.98;1788571;80;20907;-70
2021/04/03 00:11:03;;;;;;;16.25;11.22;;;;;;;8.46;74.46;99707.81;1788579;80;20945;-71
2021/04/03 00:13:38;;;;;;;19.87;12.15;;;;;;;8.46;74.63;99709.13;1788516;80;20955;-70
2021/04/03 00:16:06;;;;;;;19.60;13.75;;;;;;;8.44;74.83;99702.69;1788608;80;20902;-70
2021/04/03 00:18:34;;;;;;;23.20;14.23;;;;;;;8.45;74.83;99700.93;1788701;79;22261;-69
2021/04/03 00:21:03;;;;;;;23.67;15.95;;;;;;;8.47;74.93;99706.86;1788556;79;20982;-71
2021/04/03 00:23:31;;;;;;;22.32;14.25;;;;;;;8.49;74.92;99704.98;1788635;80;20998;-69
2021/04/03 00:26:00;;;;;;;16.87;13.15;;;;;;;8.48;74.92;99705.47;1788670;80;21001;-69
2021/04/03 00:28:28;;;;;;;20.35;11.33;;;;;;;8.50;74.90;99707.98;1788665;80;20898;-69
2021/04/03 00:30:57;;;;;;;17.67;11.53;;;;;;;8.52;75.09;99704.81;1788563;80;21518;-70
2021/04/03 00:33:25;;;;;;;17.57;13.60;;;;;;;8.54;75.06;99705.55;1788641;80;21512;-69
2021/04/03 00:35:53;;;;;;;20.12;14.13;;;;;;;8.55;75.10;99707.20;1788675;80;20993;-70
2021/04/03 00:38:21;;;;;;;19.65;15.78;;;;;;;8.58;75.18;99710.94;1788712;80;21431;-70
2021/04/03 00:40:51;;;;;;;29.52;15.50;;;;;;;8.59;75.05;99703.93;1788782;80;20998;-68
2021/04/03 00:43:23;;;;;;;18.57;13.93;;;;;;;8.55;75.07;99703.77;1788483;80;21201;-69
2021/04/03 00:45:51;;;;;;;14.78;11.90;;;;;;;8.54;75.18;99700.77;1788645;79;21000;-69
2021/04/03 00:48:19;;;;;;;18.30;12.23;;;;;;;8.53;75.28;99703.85;1788739;80;21017;-70
2021/04/03 00:50:50;;;;;;;18.57;13.58;;;;;;;8.52;75.44;99695.66;1784518;79;20939;-69
2021/04/03 00:53:21;;;;;;;19.95;14.05;;;;;;;8.53;75.57;99698.63;1775043;79;21594;-69
2021/04/03 00:55:52;;;;;;;19.92;14.43;;;;;;;8.53;75.61;99701.24;1753030;80;21418;-71
2021/04/03 00:58:21;;;;;;;18.73;14.60;;;;;;;8.53;75.46;99697.80;1774965;80;21465;-69
2021/04/03 01:00:50;;;;;;;13.55;12.10;;;;;;;8.54;75.61;99702.07;1774894;80;21026;-68
2021/04/03 01:03:22;;;;;;;14.55;11.68;;;;;;;8.55;75.64;99692.00;1774869;80;21002;-68
2021/04/03 01:05:51;;;;;;;13.30;10.93;;;;;;;8.57;75.61;99692.27;1729188;80;21001;-69
2021/04/03 01:08:19;;;;;;;14.47;12.15;;;;;;;8.58;75.77;99686.11;1774909;80;21364;-70
2021/04/03 01:10:51;;;;;;;17.27;12.65;;;;;;;8.59;75.86;99682.55;1774864;79;20966;-70
2021/04/03 01:13:38;;;;;;;17.92;13.50;;;;;;;8.60;75.83;99684.20;1774995;80;21030;-70
2021/04/03 01:16:37;;;;;;;15.78;13.75;;;;;;;8.61;75.77;99683.77;1774881;80;20993;-70
2021/04/03 01:19:36;;;;;;;15.30;12.55;;;;;;;8.62;75.75;99681.50;1775043;80;20951;-70
2021/04/03 01:22:53;;;;;;;11.88;10.38;;;;;;;8.61;75.64;99685.89;1774948;80;21318;-70
2021/04/03 01:25:50;;;;;;;10.93;9.55;;;;;;;8.61;75.82;99687.20;1747935;82;20942;-69
2021/04/03 01:28:57;;;;;;;15.75;11.40;;;;;;;8.63;75.80;99685.80;1748402;82;21085;-70
2021/04/03 01:31:26;;;;;;;14.50;11.28;;;;;;;8.63;75.86;99684.50;1748415;82;21590;-69
2021/04/03 01:33:56;;;;;;;16.07;12.33;;;;;;;8.64;75.92;99689.60;1748555;82;21562;-69
2021/04/03 01:36:24;;;;;;;13.35;11.90;;;;;;;8.64;75.87;99689.60;1748557;81;21373;-71
2021/04/03 01:39:07;;;;;;;13.45;10.85;;;;;;;8.62;75.82;99682.81;1748343;82;20930;-70
2021/04/03 01:41:48;;;;;;;13.13;10.32;;;;;;;8.65;75.75;99686.06;1847819;75;22704;-70
2021/04/03 01:44:21;;;;;;;13.85;11.40;;;;;;;8.60;75.71;99685.52;1786630;79;20938;-69
2021/04/03 01:46:50;;;;;;;13.32;11.50;;;;;;;8.61;75.87;99692.43;1818142;79;21442;-69
2021/04/03 01:49:24;;;;;;;16.73;12.93;;;;;;;8.61;75.89;99692.91;1787139;79;21488;-69
2021/04/03 01:51:53;;;;;;;16.23;12.78;;;;;;;8.60;75.98;99689.91;1763882;79;20888;-68
2021/04/03 01:54:25;;;;;;;22.27;16.85;;;;;;;8.61;75.90;99692.43;1818046;79;20938;-70
2021/04/03 01:56:57;;;;;;;23.67;16.40;;;;;;;8.60;75.85;99689.44;1817610;79;20958;-67
2021/04/03 01:59:27;;;;;;;28.70;19.48;;;;;;;8.59;75.80;99687.77;1816728;79;22712;-70
2021/04/03 02:01:55;;;;;;;36.55;22.87;;;;;;;8.61;75.84;99682.45;1818031;78;21365;-69
2021/04/03 02:04:24;;;;;;;33.55;24.07;;;;;;;8.59;75.88;99685.16;1817982;79;21045;-70
2021/04/03 02:06:52;;;;;;;33.67;22.85;;;;;;;8.53;76.06;99682.12;1817896;79;20915;-69
2021/04/03 02:09:22;;;;;;;19.12;14.40;;;;;;;8.49;76.16;99686.70;1810809;77;20942;-69
2021/04/03 02:11:52;;;;;;;18.02;12.90;;;;;;;8.40;76.29;99686.84;1787452;79;21400;-70
2021/04/03 02:14:38;;;;;;;11.73;7.72;;;;;;;8.28;76.52;99687.63;1779583;79;21053;-71
2021/04/03 02:17:09;;;;;;;7.50;5.85;;;;;;;8.18;76.67;99693.07;1779755;80;20958;-68
2021/04/03 02:19:38;;;;;;;6.05;4.35;;;;;;;8.11;77.05;99692.62;1779671;80;21108;-70
2021/04/03 02:22:08;;;;;;;6.22;2.85;;;;;;;8.04;77.29;99697.41;1779764;79;21419;-69
2021/04/03 02:24:37;;;;;;;3.15;2.52;;;;;;;7.99;77.56;99702.58;1779771;79;21553;-70
2021/04/03 02:27:07;;;;;;;2.83;2.40;;;;;;;7.89;77.71;99705.78;1779711;79;20990;-70
2021/04/03 02:29:36;;;;;;;2.65;1.75;;;;;;;7.84;77.95;99711.73;1779686;79;21036;-70
2021/04/03 02:32:07;;;;;;;2.67;2.27;;;;;;;7.77;77.95;99714.37;1779670;79;21029;-70
2021/04/03 02:34:37;;;;;;;2.80;2.27;;;;;;;7.72;77.92;99717.75;1779730;80;21597;-71
2021/04/03 02:37:07;;;;;;;1.70;1.60;;;;;;;7.66;77.79;99716.34;1779647;80;21363;-71
2021/04/03 02:39:37;;;;;;;1.70;1.60;;;;;;;7.57;77.75;99722.14;1780413;79;21041;-70
2021/04/03 02:42:17;;;;;;;1.95;1.85;;;;;;;7.50;77.63;99718.72;1791063;80;21029;-71
2021/04/03 02:44:48;;;;;;;2.98;1.77;;;;;;;7.40;77.62;99720.59;1791004;78;21125;-69
2021/04/03 02:47:27;;;;;;;1.45;1.37;;;;;;;7.34;77.92;99715.73;1791087;80;20997;-69
2021/04/03 02:50:08;;;;;;;1.45;1.37;;;;;;;7.33;77.92;99719.27;1818417;78;21371;-68
2021/04/03 02:52:39;;;;;;;1.67;1.57;;;;;;;7.32;77.89;99723.29;1821105;77;20930;-70
2021/04/03 02:55:09;;;;;;;2.05;1.95;;;;;;;7.27;77.76;99727.48;1821053;78;20943;-70
2021/04/03 02:57:37;;;;;;;2.45;2.25;;;;;;;7.20;77.65;99729.63;1821189;78;20910;-68
2021/04/03 03:00:10;;;;;;;1.72;1.62;;;;;;;7.17;77.86;99724.58;1821093;78;20974;-71
2021/04/03 03:02:39;;;;;;;2.62;2.42;;;;;;;7.10;77.69;99733.70;1821091;78;21358;-69
2021/04/03 03:05:09;;;;;;;2.95;2.75;;;;;;;7.02;77.97;99730.23;1796191;78;21006;-70
2021/04/03 03:07:42;;;;;;;3.15;2.75;;;;;;;6.96;78.14;99730.62;1821165;78;21348;-70
2021/04/03 03:10:16;;;;;;;2.55;2.35;;;;;;;6.90;78.25;99726.23;1821046;78;20910;-71
2021/04/03 03:12:46;;;;;;;2.55;2.27;;;;;;;6.87;78.30;99732.47;1821163;78;20998;-72
2021/04/03 03:15:16;;;;;;;1.98;1.85;;;;;;;6.83;78.13;99735.71;1821145;78;21410;-69
2021/04/03 03:17:44;;;;;;;1.77;1.65;;;;;;;6.78;78.40;99734.29;1821010;77;21033;-70
2021/04/03 03:20:14;;;;;;;1.65;1.55;;;;;;;6.73;78.42;99739.77;1796391;78;21348;-70
2021/04/03 03:22:42;;;;;;;1.65;1.55;;;;;;;6.67;78.20;99731.03;1821057;78;21037;-73
2021/04/03 03:25:11;;;;;;;1.75;1.65;;;;;;;6.59;78.25;99728.86;1821102;78;21336;-71
2021/04/03 03:27:44;;;;;;;1.62;1.52;;;;;;;6.52;78.21;99734.52;1821006;77;22408;-70
2021/04/03 03:30:19;;;;;;;1.87;1.60;;;;;;;6.48;78.20;99736.92;1821092;77;21372;-70
2021/04/03 03:32:48;;;;;;;1.55;1.42;;;;;;;6.46;78.43;99736.17;1794568;78;20970;-70
2021/04/03 03:35:17;;;;;;;1.60;1.50;;;;;;;6.44;78.41;99737.08;1821017;78;20982;-70
2021/04/03 03:37:46;;;;;;;1.42;1.02;;;;;;;6.43;78.55;99738.02;1821190;78;20946;-70
2021/04/03 03:40:15;;;;;;;1.70;1.45;;;;;;;6.44;78.61;99747.50;1819457;78;22183;-70
2021/04/03 03:42:44;;;;;;;2.00;1.80;;;;;;;6.41;78.71;99754.66;1812773;79;21038;-70
2021/04/03 03:45:14;;;;;;;1.70;1.60;;;;;;;6.42;78.78;99756.33;1788603;79;21535;-70
2021/04/03 03:47:44;;;;;;;2.05;1.80;;;;;;;6.42;78.79;99758.49;1812640;79;21026;-70
2021/04/03 03:50:14;;;;;;;1.87;1.77;;;;;;;6.43;78.74;99765.36;1812840;79;20923;-70
2021/04/03 03:52:44;;;;;;;1.60;1.50;;;;;;;6.47;78.59;99767.34;1812745;78;21401;-70
2021/04/03 03:55:13;;;;;;;1.72;1.62;;;;;;;6.46;78.55;99773.93;1812673;78;21364;-70
2021/04/03 03:57:42;;;;;;;1.60;1.50;;;;;;;6.43;78.58;99784.89;1762158;80;20965;-70
2021/04/03 04:00:12;;;;;;;2.45;2.25;;;;;;;6.41;78.68;99778.94;1793406;78;20941;-71
2021/04/03 04:02:43;;;;;;;2.52;2.27;;;;;;;6.38;78.72;99794.74;1812761;78;21579;-71
2021/04/03 04:05:13;;;;;;;2.35;2.15;;;;;;;6.36;78.95;99791.38;1793397;79;21327;-73
2021/04/03 04:07:43;;;;;;;2.40;2.27;;;;;;;6.35;78.79;99796.20;1812389;79;21463;-72
2021/04/03 04:10:14;;;;;;;2.87;2.60;;;;;;;6.32;78.75;99798.98;1793456;78;20949;-71
2021/04/03 04:12:44;;;;;;;3.27;3.00;;;;;;;6.30;78.81;99806.50;1812687;79;20911;-73
2021/04/03 04:15:16;;;;;;;5.45;4.15;;;;;;;6.25;78.79;99804.59;1793545;79;21036;-72
2021/04/03 04:17:44;;;;;;;3.35;3.05;;;;;;;6.20;78.87;99812.23;1812938;79;21565;-72
2021/04/03 04:20:15;;;;;;;4.00;3.60;;;;;;;6.15;79.01;99819.89;1765377;80;21359;-72
2021/04/03 04:22:44;;;;;;;4.17;3.72;;;;;;;6.08;79.06;99823.30;1812515;78;21033;-72
2021/04/03 04:25:13;;;;;;;4.60;4.22;;;;;;;6.07;79.06;99826.83;1793353;78;21347;-72
2021/04/03 04:27:42;;;;;;;4.62;4.22;;;;;;;6.04;78.86;99826.98;1812390;79;20927;-72
2021/04/03 04:30:12;;;;;;;4.28;3.90;;;;;;;6.03;78.89;99840.09;1793507;80;22164;-73
2021/04/03 04:32:42;;;;;;;5.17;4.78;;;;;;;6.00;78.79;99834.13;1811535;78;20939;-71
2021/04/03 04:35:12;;;;;;;5.20;4.67;;;;;;;5.97;78.85;99845.98;1793508;79;21355;-71
2021/04/03 04:37:42;;;;;;;5.40;4.95;;;;;;;5.94;78.75;99847.90;1812717;79;21499;-71
2021/04/03 04:40:12;;;;;;;6.15;5.65;;;;;;;5.84;78.81;99844.92;1793419;78;20980;-74
2021/04/03 04:42:42;;;;;;;6.40;5.80;;;;;;;5.79;78.88;99849.08;1759835;80;22333;-73
2021/04/03 04:45:12;;;;;;;6.60;6.00;;;;;;;5.76;78.90;99849.72;1753441;80;20973;-71
2021/04/03 04:47:40;;;;;;;6.95;6.35;;;;;;;5.76;78.81;99858.81;1809771;79;20892;-70
2021/04/03 04:50:10;;;;;;;6.03;5.53;;;;;;;5.78;78.76;99859.55;1809805;79;20935;-72
2021/04/03 04:52:39;;;;;;;6.28;5.78;;;;;;;5.80;78.63;99861.17;1809921;79;21285;-71
2021/04/03 04:55:11;;;;;;;5.78;5.30;;;;;;;5.80;78.48;99855.97;1809801;78;21354;-72
2021/04/03 04:57:40;;;;;;;6.78;6.10;;;;;;;5.79;78.43;99847.77;1809866;79;20943;-72
2021/04/03 05:00:12;;;;;;;6.87;6.33;;;;;;;5.84;78.43;99855.33;1785322;79;20947;-72
2021/04/03 05:02:44;;;;;;;6.95;6.25;;;;;;;5.89;78.10;99853.78;1809933;79;21486;-71
2021/04/03 05:05:13;;;;;;;6.87;6.28;;;;;;;5.94;77.79;99855.70;1809827;78;20903;-71
2021/04/03 05:07:41;;;;;;;6.53;5.92;;;;;;;5.95;77.37;99861.30;1809749;79;21427;-72
2021/04/03 05:10:11;;;;;;;8.65;6.47;;;;;;;5.96;77.17;99861.70;1809743;79;20950;-72
2021/04/03 05:12:40;;;;;;;5.10;4.70;;;;;;;5.94;77.06;99866.98;1809894;79;21333;-72
2021/04/03 05:15:08;;;;;;;5.67;5.17;;;;;;;5.94;77.00;99864.81;1809715;78;21551;-71
2021/04/03 05:17:36;;;;;;;6.35;5.85;;;;;;;5.92;76.80;99867.95;1809829;79;20998;-72
2021/04/03 05:20:06;;;;;;;5.72;5.22;;;;;;;5.89;76.90;99870.70;1809754;78;21354;-71
2021/04/03 05:22:37;;;;;;;5.45;4.95;;;;;;;5.91;76.97;99875.36;1809827;79;21002;-71
2021/04/03 05:25:12;;;;;;;5.45;4.95;;;;;;;5.91;76.79;99877.97;1809857;78;20975;-73
2021/04/03 05:27:41;;;;;;;5.00;4.50;;;;;;;5.91;76.72;99881.88;1809711;78;21468;-74
2021/04/03 05:30:10;;;;;;;4.42;4.10;;;;;;;5.91;76.59;99881.88;1809786;78;20927;-72
2021/04/03 05:32:38;;;;;;;5.33;4.80;;;;;;;5.86;76.64;99882.11;1809808;79;21247;-72
2021/04/03 05:35:08;;;;;;;4.55;4.15;;;;;;;5.85;76.89;99888.69;1809725;79;20991;-74
2021/04/03 05:37:38;;;;;;;4.22;3.90;;;;;;;5.84;77.05;99883.12;1809766;78;21022;-74
2021/04/03 05:40:09;;;;;;;4.78;4.03;;;;;;;5.84;76.90;99889.16;1809782;79;20986;-75
2021/04/03 05:42:39;;;;;;;4.35;3.95;;;;;;;5.86;76.93;99892.98;1792089;78;21049;-73
2021/04/03 05:45:08;;;;;;;4.53;3.92;;;;;;;5.87;76.78;99904.63;1817826;78;21185;-73
2021/04/03 05:47:37;;;;;;;3.02;2.83;;;;;;;5.81;76.68;99901.87;1817958;79;21029;-72
2021/04/03 05:50:06;;;;;;;3.47;3.15;;;;;;;5.82;76.79;99904.00;1818129;79;21480;-72
2021/04/03 05:52:44;;;;;;;3.98;3.35;;;;;;;5.81;77.00;99906.23;1817977;77;20914;-74
2021/04/03 05:55:14;;;;;;;3.60;3.30;;;;;;;5.82;77.14;99907.91;1818054;77;21459;-72
2021/04/03 05:57:42;;;;;;;3.87;3.55;;;;;;;5.86;77.10;99914.64;1818129;79;21194;-71
2021/04/03 06:00:13;;;;;;;3.65;3.35;;;;;;;5.88;77.21;99919.77;1817925;79;20938;-72
2021/04/03 06:02:42;;;;;;;4.10;3.70;;;;;;;5.86;76.93;99927.65;1818169;79;20942;-74
2021/04/03 06:05:11;;;;;;;3.87;3.47;;;;;;;5.86;76.77;99929.41;1818100;79;21334;-74
2021/04/03 06:07:40;;;;;;;4.03;3.65;;;;;;;5.85;76.69;99930.31;1818098;79;20998;-74
2021/04/03 06:10:15;;;;;;;3.22;2.92;;;;;;;5.84;76.76;99937.30;1818052;79;21433;-74
2021/04/03 06:12:45;;;;;;;6.15;4.60;;;;;;;5.84;76.54;99939.06;1817872;79;20918;-74
2021/04/03 06:15:34;;;;;;;4.97;4.47;;;;;;;5.78;76.72;99941.06;1818040;77;20930;-74
2021/04/03 06:18:12;;;;;;;5.40;4.60;;;;;;;5.79;76.68;99940.13;1796990;78;20942;-74
2021/04/03 06:20:46;;;;;;;6.03;4.78;;;;;;;5.77;76.44;99949.77;1817945;79;20989;-73
2021/04/03 06:23:17;;;;;;;4.87;4.37;;;;;;;5.78;76.52;99946.70;1817461;77;21353;-73
2021/04/03 06:25:57;;;;;;;5.40;4.35;;;;;;;5.79;76.55;99945.80;1768149;79;21013;-75
2021/04/03 06:28:30;;;;;;;4.37;3.98;;;;;;;5.81;76.77;99950.00;1818176;79;21594;-74
2021/04/03 06:31:16;;;;;;;5.00;4.30;;;;;;;5.84;76.86;99948.16;1818243;79;21336;-73
2021/04/03 06:33:45;;;;;;;6.25;5.05;;;;;;;5.85;76.60;99948.53;1818228;79;20927;-73
2021/04/03 06:36:17;;;;;;;4.60;4.20;;;;;;;5.88;76.36;99954.90;1818289;77;21029;-72
2021/04/03 06:38:46;;;;;;;7.28;4.60;;;;;;;5.93;76.35;99956.80;1818181;79;21085;-72
2021/04/03 06:41:26;;;;;;;5.47;4.65;;;;;;;6.02;76.18;99961.55;1817935;77;21042;-72
2021/04/03 06:44:09;;;;;;;5.87;4.12;;;;;;;6.06;75.97;99971.36;1817298;79;20915;-73
2021/04/03 06:46:41;;;;;;;5.10;4.60;;;;;;;6.07;75.94;99970.42;1817485;79;21139;-72
2021/04/03 06:49:10;;;;;;;5.40;4.90;;;;;;;6.06;75.83;99974.80;1817284;77;21345;-73
2021/04/03 06:51:39;;;;;;;7.15;5.72;;;;;;;6.07;75.70;99977.80;1817218;78;21408;-74
2021/04/03 06:54:12;;;;;;;7.03;6.33;;;;;;;6.09;75.49;99979.86;1817673;79;20930;-74
2021/04/03 06:56:41;;;;;;;8.63;7.08;;;;;;;6.11;75.42;99991.01;1817798;79;21345;-71
2021/04/03 06:59:12;;;;;;;8.73;7.50;;;;;;;6.12;75.32;99990.57;1818905;78;20974;-72
2021/04/03 07:01:54;;;;;;;7.90;7.08;;;;;;;6.11;75.30;99996.22;1817632;77;21362;-72
2021/04/03 07:04:29;;;;;;;7.95;7.15;;;;;;;6.13;75.40;99987.87;1817092;77;21375;-72
2021/04/03 07:06:57;;;;;;;9.53;7.90;;;;;;;6.13;75.46;99980.06;1817486;79;20986;-74
2021/04/03 07:09:26;;;;;;;9.40;8.43;;;;;;;6.11;75.55;99971.95;1817576;79;21571;-73
2021/04/03 07:11:56;;;;;;;10.60;9.55;;;;;;;6.14;75.71;99968.74;1817504;79;21041;-73
2021/04/03 07:14:27;;;;;;;9.55;8.55;;;;;;;6.19;75.59;99971.10;1817440;78;21507;-72
2021/04/03 07:16:55;;;;;;;11.78;9.98;;;;;;;6.24;75.28;99986.02;1818059;77;21479;-73
2021/04/03 07:19:23;;;;;;;11.78;9.63;;;;;;;6.26;75.17;99982.03;1819542;79;20891;-71
2021/04/03 07:21:51;;;;;;;9.38;8.48;;;;;;;6.31;74.75;99986.53;1820160;77;20908;-73
2021/04/03 07:24:20;;;;;;;8.48;7.60;;;;;;;6.34;74.75;99978.11;1820903;76;20915;-82
2021/04/03 07:26:50;;;;;;;8.85;7.95;;;;;;;6.34;74.52;99965.56;1821403;77;21190;-85
2021/04/03 07:29:43;;;;;;;9.53;8.53;;;;;;;6.32;74.37;99981.25;1820459;77;20998;-85
2021/04/03 07:32:41;;;;;;;10.83;9.83;;;;;;;6.31;74.30;99983.93;1818097;77;20946;-83
2021/04/03 07:35:18;;;;;;;11.63;10.03;;;;;;;6.33;74.73;99992.50;1820660;79;20935;-80
2021/04/03 07:37:46;;;;;;;10.10;9.10;;;;;;;6.34;74.58;99988.52;1820067;78;21022;-82
2021/04/03 07:40:28;;;;;;;9.50;7.25;;;;;;;6.43;74.52;99988.50;1819010;79;21119;-80
2021/04/03 07:42:57;;;;;;;8.23;7.42;;;;;;;6.56;74.27;99997.81;1818022;78;21006;-78
2021/04/03 07:45:46;;;;;;;10.25;9.20;;;;;;;6.67;73.71;100010.24;1817681;79;21041;-79
2021/04/03 07:48:40;;;;;;;10.88;9.73;;;;;;;6.71;73.47;100020.41;1817582;79;21009;-79
2021/04/03 07:51:15;;;;;;;13.88;10.43;;;;;;;6.71;73.32;100026.93;1817758;78;21404;-78
2021/04/03 07:53:45;;;;;;;11.12;9.48;;;;;;;6.66;73.10;100032.02;1817727;79;22369;-85
2021/04/03 07:56:16;;;;;;;11.18;10.08;;;;;;;6.61;73.10;100035.71;1817589;79;20899;-83
2021/04/03 07:58:51;;;;;;;11.12;9.85;;;;;;;6.54;73.27;100042.17;1817666;79;20931;-84
2021/04/03 08:01:27;;;;;;;9.98;8.88;;;;;;;6.49;73.26;100053.30;1814827;79;20994;-83
2021/04/03 08:04:03;;;;;;;10.48;9.38;;;;;;;6.50;73.25;100047.63;1817464;79;20998;-82
2021/04/03 08:07:33;;;;;;;10.53;9.48;;;;;;;6.60;73.15;100050.97;1816227;79;22517;-80
2021/04/03 08:10:02;;;;;;;11.33;10.23;;;;;;;6.54;72.53;100058.27;1789469;79;20942;-84
2021/04/03 08:12:30;;;;;;;11.53;10.38;;;;;;;6.49;72.43;100057.21;1789376;80;21193;-79
2021/04/03 08:14:58;;;;;;;12.85;11.28;;;;;;;6.45;72.38;100056.98;1789248;80;21021;-77
2021/04/03 08:17:27;;;;;;;11.30;10.20;;;;;;;6.44;72.67;100057.42;1789061;79;21029;-73
2021/04/03 08:19:59;;;;;;;8.73;7.83;;;;;;;6.48;72.84;100058.58;1789019;80;21021;-77
2021/04/03 08:22:28;;;;;;;8.80;8.00;;;;;;;6.49;72.51;100061.55;1789721;80;20934;-80
2021/04/03 08:24:58;;;;;;;6.22;5.62;;;;;;;6.50;72.62;100058.88;1789950;79;21359;-76
2021/04/03 08:27:33;;;;;;;6.92;6.30;;;;;;;6.54;72.23;100068.22;1790507;80;21361;-79
2021/04/03 08:30:20;;;;;;;8.78;7.20;;;;;;;6.60;72.33;100071.81;1789958;80;20946;-71
2021/04/03 08:32:34;;;;;;;9.00;8.15;;;;;;;6.68;71.80;100082.30;1804687;78;20979;-75
2021/04/03 08:35:03;;;;;;;9.33;8.40;;;;;;;6.69;71.84;100088.70;1754404;81;21365;-72
2021/04/03 08:37:32;;;;;;;9.20;8.28;;;;;;;6.66;71.88;100093.25;1752716;81;21381;-72
2021/04/03 08:40:00;;;;;;;10.30;9.30;;;;;;;6.61;72.08;100092.19;1754399;81;21022;-76
2021/04/03 08:42:28;;;;;;;8.23;7.42;;;;;;;6.58;72.32;100096.23;1754449;81;21600;-73
2021/04/03 08:44:58;;;;;;;8.38;7.50;;;;;;;6.56;71.78;100101.55;1754461;81;21002;-75
2021/04/03 08:47:27;;;;;;;10.13;9.13;;;;;;;6.51;71.72;100095.71;1725477;81;21046;-80
2021/04/03 08:49:55;;;;;;;11.25;10.05;;;;;;;6.42;72.25;100098.36;1754568;81;22164;-79
2021/04/03 08:52:25;;;;;;;11.15;9.38;;;;;;;6.47;72.43;100110.28;1754351;81;20967;-77
2021/04/03 08:54:53;;;;;;;10.88;9.78;;;;;;;6.50;72.29;100105.77;1672332;81;21024;-77
2021/04/03 08:57:25;;;;;;;9.65;8.75;;;;;;;6.51;72.32;100107.91;1746125;82;21003;-77
2021/04/03 08:59:56;;;;;;;8.85;7.95;;;;;;;6.51;72.08;100110.51;1754418;81;20959;-79
2021/04/03 09:02:24;;;;;;;7.08;6.37;;;;;;;6.48;71.77;100107.61;1788658;80;22107;-78
2021/04/03 09:04:53;;;;;;;8.65;6.00;;;;;;;6.49;71.38;100106.70;1725196;81;21400;-73
2021/04/03 09:07:36;;;;;;;7.03;6.15;;;;;;;6.50;71.00;100114.88;1737792;81;20936;-79
2021/04/03 09:10:17;;;;;;;7.55;6.85;;;;;;;6.49;71.00;100113.65;1781106;80;20951;-73
2021/04/03 09:12:46;;;;;;;6.75;6.08;;;;;;;6.50;71.13;100107.06;1744157;82;20983;-73
2021/04/03 09:15:17;;;;;;;7.00;6.30;;;;;;;6.57;71.39;100112.80;1781076;80;21369;-73
2021/04/03 09:17:51;;;;;;;8.05;7.33;;;;;;;6.59;71.02;100107.89;1750565;80;20951;-73
2021/04/03 09:20:24;;;;;;;8.30;7.42;;;;;;;6.56;71.07;100115.05;1780483;80;21447;-73
2021/04/03 09:22:54;;;;;;;7.47;6.22;;;;;;;6.58;71.20;100120.55;1780434;80;20943;-72
2021/04/03 09:25:23;;;;;;;6.78;6.08;;;;;;;6.61;70.91;100116.94;1743469;82;21064;-74
2021/04/03 09:28:12;;;;;;;6.83;5.75;;;;;;;6.61;71.16;100119.08;1714429;82;21209;-75
2021/04/03 09:30:45;;;;;;;6.58;5.80;;;;;;;6.64;70.90;100121.98;1743409;81;20987;-75
2021/04/03 09:33:25;;;;;;;6.05;5.45;;;;;;;6.70;70.72;100122.97;1780424;80;20924;-73
2021/04/03 09:36:09;;;;;;;8.68;7.03;;;;;;;6.75;70.73;100120.12;1743379;82;21560;-74
2021/04/03 09:38:38;;;;;;;7.67;6.60;;;;;;;6.79;70.35;100124.26;1780712;80;20947;-74
2021/04/03 09:41:29;;;;;;;8.75;7.55;;;;;;;6.75;70.45;100134.45;1780441;80;21368;-75
2021/04/03 09:43:57;;;;;;;9.88;8.03;;;;;;;6.72;70.35;100138.06;1780605;80;21054;-73
2021/04/03 09:46:27;;;;;;;8.00;7.08;;;;;;;6.69;70.36;100137.38;1780531;80;21054;-74
2021/04/03 09:48:56;;;;;;;6.62;5.97;;;;;;;6.69;70.45;100144.72;1691799;82;20907;-75
2021/04/03 09:51:24;;;;;;;7.92;5.90;;;;;;;6.72;70.69;100152.40;1780670;80;20950;-75
2021/04/03 09:53:53;;;;;;;6.70;6.00;;;;;;;6.74;70.75;100144.52;1743516;82;21210;-75
2021/04/03 09:56:23;;;;;;;8.23;6.75;;;;;;;6.73;70.85;100159.75;1780403;80;21006;-78
2021/04/03 09:58:54;;;;;;;6.97;6.28;;;;;;;6.78;70.76;100162.95;1780506;80;20947;-76
2021/04/03 10:01:23;;;;;;;5.50;5.00;;;;;;;6.82;70.34;100157.97;1743527;82;20939;-78
2021/04/03 10:03:53;;;;;;;5.87;5.30;;;;;;;6.84;70.25;100159.56;1780422;80;20990;-76
2021/04/03 10:06:22;;;;;;;6.45;5.80;;;;;;;6.84;69.79;100163.47;1789316;79;22296;-76
2021/04/03 10:08:50;;;;;;;6.12;5.53;;;;;;;6.81;69.92;100171.47;1745749;82;21049;-75
2021/04/03 10:11:18;;;;;;;7.70;5.72;;;;;;;6.78;70.06;100161.65;1815118;79;20998;-81
2021/04/03 10:13:47;;;;;;;6.50;5.12;;;;;;;6.78;70.02;100179.45;1745811;82;20992;-74
2021/04/03 10:16:16;;;;;;;5.75;4.60;;;;;;;6.81;69.99;100183.66;1814908;79;20951;-77
2021/04/03 10:18:46;;;;;;;6.03;4.55;;;;;;;6.87;70.08;100190.30;1745628;82;21337;-75
2021/04/03 10:21:14;;;;;;;7.30;5.53;;;;;;;6.90;69.92;100190.17;1815187;79;20959;-74
2021/04/03 10:23:43;;;;;;;6.28;5.67;;;;;;;6.88;69.54;100191.54;1815334;79;21353;-75
2021/04/03 10:26:11;;;;;;;7.08;6.17;;;;;;;6.86;69.41;100197.28;1815211;79;21329;-76
2021/04/03 10:28:39;;;;;;;7.25;5.85;;;;;;;6.84;69.64;100193.92;1745784;82;21409;-77
2021/04/03 10:31:08;;;;;;;7.05;6.35;;;;;;;6.87;69.57;100204.64;1815276;79;22403;-76
2021/04/03 10:33:37;;;;;;;6.92;5.97;;;;;;;6.90;69.70;100208.41;1815223;78;21789;-76
2021/04/03 10:36:08;;;;;;;7.35;6.12;;;;;;;6.93;69.49;100204.33;1815230;79;21065;-75
2021/04/03 10:38:37;;;;;;;6.55;5.85;;;;;;;6.99;69.59;100212.68;1745711;82;21498;-75
2021/04/03 10:41:07;;;;;;;7.50;6.00;;;;;;;7.01;69.37;100198.27;1815363;79;20935;-76
2021/04/03 10:43:37;;;;;;;6.97;5.72;;;;;;;7.01;69.05;100198.27;1745797;82;21368;-76
2021/04/03 10:46:08;;;;;;;7.28;6.22;;;;;;;7.03;69.06;100205.55;1815105;79;20979;-74
2021/04/03 10:48:38;;;;;;;7.20;6.40;;;;;;;7.08;69.02;100204.01;1815098;79;20959;-77
2021/04/03 10:51:07;;;;;;;5.83;5.25;;;;;;;7.13;69.01;100197.61;1814966;79;21026;-77
2021/04/03 10:53:35;;;;;;;9.08;5.87;;;;;;;7.23;69.20;100204.52;1815237;79;20915;-78
2021/04/03 10:56:04;;;;;;;6.30;5.70;;;;;;;7.34;68.95;100211.77;1815228;79;21099;-78
2021/04/03 10:58:33;;;;;;;6.92;6.10;;;;;;;7.41;68.88;100214.42;1815188;79;20947;-77
2021/04/03 11:01:02;;;;;;;7.35;5.97;;;;;;;7.43;68.63;100216.02;1815176;79;20975;-75
2021/04/03 11:03:30;;;;;;;7.03;6.33;;;;;;;7.51;68.78;100218.68;1745790;82;21417;-76
2021/04/03 11:05:58;;;;;;;6.80;5.72;;;;;;;7.60;68.37;100224.70;1815182;79;21011;-74
2021/04/03 11:08:29;;;;;;;6.12;5.53;;;;;;;7.67;68.15;100228.22;1806936;79;21348;-76
2021/04/03 11:10:57;;;;;;;6.25;5.55;;;;;;;7.70;67.89;100228.98;1806671;79;20955;-75
2021/04/03 11:13:26;;;;;;;6.87;6.12;;;;;;;7.74;67.61;100236.55;1806623;79;20948;-75
2021/04/03 11:15:55;;;;;;;7.35;6.30;;;;;;;7.81;67.56;100233.15;1737597;82;21050;-75
2021/04/03 11:18:23;;;;;;;6.87;5.80;;;;;;;7.86;67.39;100238.95;1806375;79;20928;-76
2021/04/03 11:20:51;;;;;;;9.08;5.83;;;;;;;7.85;66.84;100240.73;1737893;82;22257;-76
2021/04/03 11:23:19;;;;;;;7.40;6.47;;;;;;;7.83;66.83;100255.62;1806179;79;21559;-75
2021/04/03 11:25:47;;;;;;;9.63;7.12;;;;;;;7.84;66.91;100248.63;1806344;79;20987;-75
2021/04/03 11:28:15;;;;;;;7.22;5.90;;;;;;;7.81;66.85;100241.81;1737540;82;20939;-76
2021/04/03 11:30:43;;;;;;;6.22;5.42;;;;;;;7.79;67.07;100249.36;1806284;79;20931;-76
2021/04/03 11:33:12;;;;;;;6.67;5.85;;;;;;;7.77;67.05;100256.42;1737872;82;21662;-76
2021/04/03 11:35:40;;;;;;;5.70;5.08;;;;;;;7.77;67.15;100264.25;1806367;79;20999;-76
2021/04/03 11:38:08;;;;;;;6.05;5.08;;;;;;;7.83;67.05;100269.15;1737324;82;21038;-77
2021/04/03 11:40:37;;;;;;;6.60;5.40;;;;;;;7.84;67.41;100278.19;1806613;79;21061;-75
2021/04/03 11:43:05;;;;;;;5.40;4.90;;;;;;;7.85;67.36;100277.27;1737887;82;20943;-77
2021/04/03 11:45:43;;;;;;;7.10;6.03;;;;;;;7.87;66.97;100291.56;1806577;79;21247;-77
2021/04/03 11:48:14;;;;;;;5.45;4.95;;;;;;;7.85;66.47;100291.63;1737910;82;21417;-79
2021/04/03 11:50:43;;;;;;;5.67;4.72;;;;;;;7.85;66.35;100292.10;1806761;79;20939;-79
2021/04/03 11:53:11;;;;;;;5.85;5.03;;;;;;;7.82;66.24;100289.16;1737888;82;21003;-78
2021/04/03 11:55:40;;;;;;;6.35;5.22;;;;;;;7.81;66.36;100288.80;1784242;79;21011;-78